sensor_id;sensor_type;location;lat;lon;timestamp;P1;durP1;ratioP1;P2;durP2;ratioP2
64615;SDS011;51027;42.162;24.754;2023-03-01T00:00:37;5.22;;;2.00;;
64615;SDS011;51027;42.162;24.754;2023-03-01T00:03:02;6.30;;;2.35;;
64615;SDS011;51027;42.162;24.754;2023-03-01T00:05:28;8.40;;;2.55;;
64615;SDS011;51027;42.162;24.754;2023-03-01T00:07:53;5.88;;;2.22;;
64615;SDS011;51027;42.162;24.754;2023-03-01T00:10:19;7.00;;;2.63;;
64615;SDS011;51027;42.162;24.754;2023-03-01T00:12:44;7.20;;;2.38;;
64615;SDS011;51027;42.162;24.754;2023-03-01T00:15:10;3.75;;;2.28;;
64615;SDS011;51027;42.162;24.754;2023-03-01T00:17:36;5.22;;;1.80;;
64615;SDS011;51027;42.162;24.754;2023-03-01T00:20:02;5.95;;;2.33;;
64615;SDS011;51027;42.162;24.754;2023-03-01T00:22:27;8.57;;;2.50;;
64615;SDS011;51027;42.162;24.754;2023-03-01T00:24:55;6.60;;;2.30;;
64615;SDS011;51027;42.162;24.754;2023-03-01T00:27:20;6.38;;;2.55;;
64615;SDS011;51027;42.162;24.754;2023-03-01T00:29:46;7.80;;;2.53;;
64615;SDS011;51027;42.162;24.754;2023-03-01T00:32:11;6.93;;;2.85;;
64615;SDS011;51027;42.162;24.754;2023-03-01T00:34:37;7.15;;;2.63;;
64615;SDS011;51027;42.162;24.754;2023-03-01T00:37:02;10.48;;;3.10;;
64615;SDS011;51027;42.162;24.754;2023-03-01T00:39:30;10.57;;;2.92;;
64615;SDS011;51027;42.162;24.754;2023-03-01T00:41:56;6.65;;;2.60;;
64615;SDS011;51027;42.162;24.754;2023-03-01T00:44:21;9.32;;;3.00;;
64615;SDS011;51027;42.162;24.754;2023-03-01T00:46:47;8.18;;;2.53;;
64615;SDS011;51027;42.162;24.754;2023-03-01T00:49:12;8.70;;;3.20;;
64615;SDS011;51027;42.162;24.754;2023-03-01T00:51:39;8.25;;;2.78;;
64615;SDS011;51027;42.162;24.754;2023-03-01T00:54:07;9.23;;;3.25;;
64615;SDS011;51027;42.162;24.754;2023-03-01T00:56:34;9.98;;;3.20;;
64615;SDS011;51027;42.162;24.754;2023-03-01T00:58:59;11.00;;;3.38;;
64615;SDS011;51027;42.162;24.754;2023-03-01T01:01:26;8.82;;;3.20;;
64615;SDS011;51027;42.162;24.754;2023-03-01T01:03:58;8.20;;;2.88;;
64615;SDS011;51027;42.162;24.754;2023-03-01T01:06:26;7.25;;;3.03;;
64615;SDS011;51027;42.162;24.754;2023-03-01T01:08:54;8.48;;;2.95;;
64615;SDS011;51027;42.162;24.754;2023-03-01T01:11:21;9.07;;;2.95;;
64615;SDS011;51027;42.162;24.754;2023-03-01T01:13:48;8.00;;;2.88;;
64615;SDS011;51027;42.162;24.754;2023-03-01T01:16:15;10.30;;;3.00;;
64615;SDS011;51027;42.162;24.754;2023-03-01T01:18:42;8.68;;;2.90;;
64615;SDS011;51027;42.162;24.754;2023-03-01T01:21:09;7.53;;;2.40;;
64615;SDS011;51027;42.162;24.754;2023-03-01T01:23:37;6.55;;;2.65;;
64615;SDS011;51027;42.162;24.754;2023-03-01T01:26:07;6.50;;;2.70;;
64615;SDS011;51027;42.162;24.754;2023-03-01T01:28:35;7.63;;;2.65;;
64615;SDS011;51027;42.162;24.754;2023-03-01T01:31:01;6.13;;;2.55;;
64615;SDS011;51027;42.162;24.754;2023-03-01T01:33:26;9.52;;;2.90;;
64615;SDS011;51027;42.162;24.754;2023-03-01T01:35:52;9.82;;;3.38;;
64615;SDS011;51027;42.162;24.754;2023-03-01T01:38:17;8.65;;;2.80;;
64615;SDS011;51027;42.162;24.754;2023-03-01T01:40:43;7.30;;;2.65;;
64615;SDS011;51027;42.162;24.754;2023-03-01T01:43:17;9.10;;;2.90;;
64615;SDS011;51027;42.162;24.754;2023-03-01T01:45:52;8.77;;;2.90;;
64615;SDS011;51027;42.162;24.754;2023-03-01T01:48:22;6.18;;;2.72;;
64615;SDS011;51027;42.162;24.754;2023-03-01T01:50:55;9.45;;;3.20;;
64615;SDS011;51027;42.162;24.754;2023-03-01T01:53:27;5.75;;;2.60;;
64615;SDS011;51027;42.162;24.754;2023-03-01T01:55:54;5.88;;;2.70;;
64615;SDS011;51027;42.162;24.754;2023-03-01T01:58:23;5.63;;;2.60;;
64615;SDS011;51027;42.162;24.754;2023-03-01T02:00:52;7.53;;;2.75;;
64615;SDS011;51027;42.162;24.754;2023-03-01T02:03:19;9.35;;;3.13;;
64615;SDS011;51027;42.162;24.754;2023-03-01T02:08:18;8.00;;;2.70;;
64615;SDS011;51027;42.162;24.754;2023-03-01T02:10:46;8.10;;;3.00;;
64615;SDS011;51027;42.162;24.754;2023-03-01T02:13:14;15.50;;;5.53;;
64615;SDS011;51027;42.162;24.754;2023-03-01T02:15:40;15.82;;;5.85;;
64615;SDS011;51027;42.162;24.754;2023-03-01T02:18:06;19.38;;;8.27;;
64615;SDS011;51027;42.162;24.754;2023-03-01T02:20:40;23.65;;;11.35;;
64615;SDS011;51027;42.162;24.754;2023-03-01T02:30:41;12.38;;;4.13;;
64615;SDS011;51027;42.162;24.754;2023-03-01T02:33:29;12.40;;;4.00;;
64615;SDS011;51027;42.162;24.754;2023-03-01T02:36:01;12.75;;;3.88;;
64615;SDS011;51027;42.162;24.754;2023-03-01T02:38:31;11.85;;;3.97;;
64615;SDS011;51027;42.162;24.754;2023-03-01T02:40:57;13.20;;;4.22;;
64615;SDS011;51027;42.162;24.754;2023-03-01T02:43:26;12.73;;;3.95;;
64615;SDS011;51027;42.162;24.754;2023-03-01T02:45:57;11.48;;;3.47;;
64615;SDS011;51027;42.162;24.754;2023-03-01T02:48:24;10.50;;;3.25;;
64615;SDS011;51027;42.162;24.754;2023-03-01T02:53:22;10.60;;;3.28;;
64615;SDS011;51027;42.162;24.754;2023-03-01T02:55:49;8.55;;;2.83;;
64615;SDS011;51027;42.162;24.754;2023-03-01T02:58:15;10.25;;;3.22;;
64615;SDS011;51027;42.162;24.754;2023-03-01T03:00:41;7.28;;;3.17;;
64615;SDS011;51027;42.162;24.754;2023-03-01T03:03:13;6.78;;;2.25;;
64615;SDS011;51027;42.162;24.754;2023-03-01T03:05:40;6.65;;;2.40;;
64615;SDS011;51027;42.162;24.754;2023-03-01T03:08:05;7.75;;;2.92;;
64615;SDS011;51027;42.162;24.754;2023-03-01T03:10:33;10.95;;;3.40;;
64615;SDS011;51027;42.162;24.754;2023-03-01T03:13:04;9.30;;;3.60;;
64615;SDS011;51027;42.162;24.754;2023-03-01T03:15:40;12.10;;;3.70;;
64615;SDS011;51027;42.162;24.754;2023-03-01T03:18:08;9.68;;;3.28;;
64615;SDS011;51027;42.162;24.754;2023-03-01T03:20:36;10.65;;;3.42;;
64615;SDS011;51027;42.162;24.754;2023-03-01T03:23:03;11.38;;;3.38;;
64615;SDS011;51027;42.162;24.754;2023-03-01T03:25:29;10.68;;;3.47;;
64615;SDS011;51027;42.162;24.754;2023-03-01T03:27:55;10.68;;;3.40;;
64615;SDS011;51027;42.162;24.754;2023-03-01T03:30:25;11.43;;;3.45;;
64615;SDS011;51027;42.162;24.754;2023-03-01T03:32:53;8.15;;;2.70;;
64615;SDS011;51027;42.162;24.754;2023-03-01T03:35:22;8.07;;;2.83;;
64615;SDS011;51027;42.162;24.754;2023-03-01T03:37:50;7.50;;;2.92;;
64615;SDS011;51027;42.162;24.754;2023-03-01T03:43:03;8.27;;;2.97;;
64615;SDS011;51027;42.162;24.754;2023-03-01T03:45:31;9.05;;;2.97;;
64615;SDS011;51027;42.162;24.754;2023-03-01T03:47:58;8.38;;;3.30;;
64615;SDS011;51027;42.162;24.754;2023-03-01T03:50:25;8.63;;;3.10;;
64615;SDS011;51027;42.162;24.754;2023-03-01T03:52:50;10.57;;;3.65;;
64615;SDS011;51027;42.162;24.754;2023-03-01T03:55:16;8.75;;;3.03;;
64615;SDS011;51027;42.162;24.754;2023-03-01T03:57:44;8.38;;;3.30;;
64615;SDS011;51027;42.162;24.754;2023-03-01T04:00:16;8.95;;;3.30;;
64615;SDS011;51027;42.162;24.754;2023-03-01T04:02:43;4.13;;;1.90;;
64615;SDS011;51027;42.162;24.754;2023-03-01T04:05:10;8.48;;;3.00;;
64615;SDS011;51027;42.162;24.754;2023-03-01T04:07:37;9.90;;;3.13;;
64615;SDS011;51027;42.162;24.754;2023-03-01T04:10:06;9.77;;;3.15;;
64615;SDS011;51027;42.162;24.754;2023-03-01T04:12:42;11.60;;;3.70;;
64615;SDS011;51027;42.162;24.754;2023-03-01T04:15:08;7.82;;;2.85;;
64615;SDS011;51027;42.162;24.754;2023-03-01T04:20:08;11.38;;;3.47;;
64615;SDS011;51027;42.162;24.754;2023-03-01T04:22:36;8.00;;;2.97;;
64615;SDS011;51027;42.162;24.754;2023-03-01T04:25:02;11.25;;;3.78;;
64615;SDS011;51027;42.162;24.754;2023-03-01T04:27:27;12.25;;;3.65;;
64615;SDS011;51027;42.162;24.754;2023-03-01T04:29:53;11.43;;;3.90;;
64615;SDS011;51027;42.162;24.754;2023-03-01T04:32:21;13.48;;;4.32;;
64615;SDS011;51027;42.162;24.754;2023-03-01T04:34:47;14.68;;;4.60;;
64615;SDS011;51027;42.162;24.754;2023-03-01T04:37:12;15.32;;;5.30;;
64615;SDS011;51027;42.162;24.754;2023-03-01T04:39:37;11.15;;;3.90;;
64615;SDS011;51027;42.162;24.754;2023-03-01T04:42:10;13.00;;;4.53;;
64615;SDS011;51027;42.162;24.754;2023-03-01T04:44:39;15.13;;;4.80;;
64615;SDS011;51027;42.162;24.754;2023-03-01T04:47:04;14.10;;;5.30;;
64615;SDS011;51027;42.162;24.754;2023-03-01T04:49:30;13.75;;;4.82;;
64615;SDS011;51027;42.162;24.754;2023-03-01T04:51:56;16.33;;;5.43;;
64615;SDS011;51027;42.162;24.754;2023-03-01T04:54:27;14.73;;;4.43;;
64615;SDS011;51027;42.162;24.754;2023-03-01T04:56:53;13.32;;;4.53;;
64615;SDS011;51027;42.162;24.754;2023-03-01T04:59:19;13.90;;;4.20;;
64615;SDS011;51027;42.162;24.754;2023-03-01T05:01:47;12.07;;;4.38;;
64615;SDS011;51027;42.162;24.754;2023-03-01T05:04:16;13.27;;;4.57;;
64615;SDS011;51027;42.162;24.754;2023-03-01T05:06:42;15.00;;;5.03;;
64615;SDS011;51027;42.162;24.754;2023-03-01T05:09:07;18.17;;;5.72;;
64615;SDS011;51027;42.162;24.754;2023-03-01T05:11:33;16.75;;;5.55;;
64615;SDS011;51027;42.162;24.754;2023-03-01T05:14:04;15.35;;;5.35;;
64615;SDS011;51027;42.162;24.754;2023-03-01T05:18:57;14.50;;;5.25;;
64615;SDS011;51027;42.162;24.754;2023-03-01T05:21:23;15.88;;;5.75;;
64615;SDS011;51027;42.162;24.754;2023-03-01T05:23:49;15.65;;;6.03;;
64615;SDS011;51027;42.162;24.754;2023-03-01T05:26:15;12.65;;;4.85;;
64615;SDS011;51027;42.162;24.754;2023-03-01T05:28:43;15.23;;;5.60;;
64615;SDS011;51027;42.162;24.754;2023-03-01T05:31:09;14.23;;;5.22;;
64615;SDS011;51027;42.162;24.754;2023-03-01T05:33:37;10.00;;;3.22;;
64615;SDS011;51027;42.162;24.754;2023-03-01T05:36:06;14.90;;;5.30;;
64615;SDS011;51027;42.162;24.754;2023-03-01T05:38:33;15.23;;;5.15;;
64615;SDS011;51027;42.162;24.754;2023-03-01T05:40:59;13.45;;;5.10;;
64615;SDS011;51027;42.162;24.754;2023-03-01T05:43:25;11.23;;;4.10;;
64615;SDS011;51027;42.162;24.754;2023-03-01T05:45:50;15.50;;;5.80;;
64615;SDS011;51027;42.162;24.754;2023-03-01T05:48:16;13.43;;;5.03;;
64615;SDS011;51027;42.162;24.754;2023-03-01T05:50:44;13.98;;;4.90;;
64615;SDS011;51027;42.162;24.754;2023-03-01T05:53:14;14.95;;;4.78;;
64615;SDS011;51027;42.162;24.754;2023-03-01T05:55:42;13.52;;;4.85;;
64615;SDS011;51027;42.162;24.754;2023-03-01T05:58:12;14.02;;;4.80;;
64615;SDS011;51027;42.162;24.754;2023-03-01T06:00:40;15.07;;;4.82;;
64615;SDS011;51027;42.162;24.754;2023-03-01T06:03:06;14.07;;;5.28;;
64615;SDS011;51027;42.162;24.754;2023-03-01T06:05:35;14.57;;;5.68;;
64615;SDS011;51027;42.162;24.754;2023-03-01T06:08:00;15.30;;;5.35;;
64615;SDS011;51027;42.162;24.754;2023-03-01T06:10:26;12.20;;;4.38;;
64615;SDS011;51027;42.162;24.754;2023-03-01T06:12:52;12.18;;;4.70;;
64615;SDS011;51027;42.162;24.754;2023-03-01T06:15:18;13.93;;;5.05;;
64615;SDS011;51027;42.162;24.754;2023-03-01T06:17:44;11.40;;;4.00;;
64615;SDS011;51027;42.162;24.754;2023-03-01T06:20:12;14.65;;;5.10;;
64615;SDS011;51027;42.162;24.754;2023-03-01T06:22:40;15.73;;;4.45;;
64615;SDS011;51027;42.162;24.754;2023-03-01T06:25:06;12.65;;;4.43;;
64615;SDS011;51027;42.162;24.754;2023-03-01T06:27:33;9.88;;;3.75;;
64615;SDS011;51027;42.162;24.754;2023-03-01T06:29:58;13.38;;;4.70;;
64615;SDS011;51027;42.162;24.754;2023-03-01T06:32:24;14.10;;;5.47;;
64615;SDS011;51027;42.162;24.754;2023-03-01T06:34:50;14.27;;;4.80;;
64615;SDS011;51027;42.162;24.754;2023-03-01T06:37:15;13.30;;;5.25;;
64615;SDS011;51027;42.162;24.754;2023-03-01T06:39:41;15.90;;;6.05;;
64615;SDS011;51027;42.162;24.754;2023-03-01T06:42:07;13.02;;;5.20;;
64615;SDS011;51027;42.162;24.754;2023-03-01T06:44:34;14.18;;;5.25;;
64615;SDS011;51027;42.162;24.754;2023-03-01T06:47:00;14.15;;;4.68;;
64615;SDS011;51027;42.162;24.754;2023-03-01T06:49:25;17.08;;;5.80;;
64615;SDS011;51027;42.162;24.754;2023-03-01T06:51:51;12.90;;;5.03;;
64615;SDS011;51027;42.162;24.754;2023-03-01T06:54:16;15.73;;;6.35;;
64615;SDS011;51027;42.162;24.754;2023-03-01T06:56:42;17.38;;;6.50;;
64615;SDS011;51027;42.162;24.754;2023-03-01T06:59:08;15.70;;;6.40;;
64615;SDS011;51027;42.162;24.754;2023-03-01T07:01:33;13.38;;;5.40;;
64615;SDS011;51027;42.162;24.754;2023-03-01T07:03:59;14.57;;;4.97;;
64615;SDS011;51027;42.162;24.754;2023-03-01T07:06:24;13.43;;;4.65;;
64615;SDS011;51027;42.162;24.754;2023-03-01T07:08:49;15.13;;;5.82;;
64615;SDS011;51027;42.162;24.754;2023-03-01T07:11:15;13.73;;;4.78;;
64615;SDS011;51027;42.162;24.754;2023-03-01T07:13:41;15.10;;;4.90;;
64615;SDS011;51027;42.162;24.754;2023-03-01T07:16:07;13.63;;;5.80;;
64615;SDS011;51027;42.162;24.754;2023-03-01T07:18:32;15.60;;;6.32;;
64615;SDS011;51027;42.162;24.754;2023-03-01T07:20:58;17.35;;;6.53;;
64615;SDS011;51027;42.162;24.754;2023-03-01T07:23:23;19.20;;;8.38;;
64615;SDS011;51027;42.162;24.754;2023-03-01T07:25:55;20.58;;;8.75;;
64615;SDS011;51027;42.162;24.754;2023-03-01T07:28:22;17.55;;;6.93;;
64615;SDS011;51027;42.162;24.754;2023-03-01T07:30:48;14.93;;;4.85;;
64615;SDS011;51027;42.162;24.754;2023-03-01T07:33:13;16.45;;;5.82;;
64615;SDS011;51027;42.162;24.754;2023-03-01T07:35:39;12.32;;;4.43;;
64615;SDS011;51027;42.162;24.754;2023-03-01T07:38:04;14.63;;;4.65;;
64615;SDS011;51027;42.162;24.754;2023-03-01T07:40:30;14.05;;;4.60;;
64615;SDS011;51027;42.162;24.754;2023-03-01T07:42:58;12.35;;;3.80;;
64615;SDS011;51027;42.162;24.754;2023-03-01T07:45:24;13.05;;;5.05;;
64615;SDS011;51027;42.162;24.754;2023-03-01T07:47:53;13.15;;;4.82;;
64615;SDS011;51027;42.162;24.754;2023-03-01T07:50:20;14.23;;;5.18;;
64615;SDS011;51027;42.162;24.754;2023-03-01T07:52:46;14.20;;;4.40;;
64615;SDS011;51027;42.162;24.754;2023-03-01T07:55:13;15.55;;;5.72;;
64615;SDS011;51027;42.162;24.754;2023-03-01T07:57:39;15.30;;;5.22;;
64615;SDS011;51027;42.162;24.754;2023-03-01T08:00:04;14.85;;;4.65;;
64615;SDS011;51027;42.162;24.754;2023-03-01T08:02:31;11.10;;;3.70;;
64615;SDS011;51027;42.162;24.754;2023-03-01T08:04:56;14.27;;;4.55;;
64615;SDS011;51027;42.162;24.754;2023-03-01T08:07:22;11.05;;;3.75;;
64615;SDS011;51027;42.162;24.754;2023-03-01T08:09:47;13.60;;;4.15;;
64615;SDS011;51027;42.162;24.754;2023-03-01T08:12:13;13.10;;;5.13;;
64615;SDS011;51027;42.162;24.754;2023-03-01T08:14:38;14.30;;;5.68;;
64615;SDS011;51027;42.162;24.754;2023-03-01T08:17:04;13.30;;;4.65;;
64615;SDS011;51027;42.162;24.754;2023-03-01T08:19:29;10.70;;;3.65;;
64615;SDS011;51027;42.162;24.754;2023-03-01T08:21:55;11.35;;;3.50;;
64615;SDS011;51027;42.162;24.754;2023-03-01T08:24:23;12.02;;;3.65;;
64615;SDS011;51027;42.162;24.754;2023-03-01T08:26:48;12.27;;;4.00;;
64615;SDS011;51027;42.162;24.754;2023-03-01T08:29:14;9.75;;;3.45;;
64615;SDS011;51027;42.162;24.754;2023-03-01T08:31:40;12.65;;;4.15;;
64615;SDS011;51027;42.162;24.754;2023-03-01T08:34:07;12.55;;;3.55;;
64615;SDS011;51027;42.162;24.754;2023-03-01T08:36:36;7.55;;;3.00;;
64615;SDS011;51027;42.162;24.754;2023-03-01T08:39:03;9.48;;;3.20;;
64615;SDS011;51027;42.162;24.754;2023-03-01T08:41:30;8.02;;;3.10;;
64615;SDS011;51027;42.162;24.754;2023-03-01T08:43:55;10.98;;;3.40;;
64615;SDS011;51027;42.162;24.754;2023-03-01T08:46:27;11.23;;;4.35;;
64615;SDS011;51027;42.162;24.754;2023-03-01T08:48:54;9.75;;;3.20;;
64615;SDS011;51027;42.162;24.754;2023-03-01T08:51:20;12.25;;;4.35;;
64615;SDS011;51027;42.162;24.754;2023-03-01T08:53:47;13.93;;;4.75;;
64615;SDS011;51027;42.162;24.754;2023-03-01T08:56:13;17.45;;;5.90;;
64615;SDS011;51027;42.162;24.754;2023-03-01T08:58:39;16.23;;;4.97;;
64615;SDS011;51027;42.162;24.754;2023-03-01T09:01:11;12.30;;;4.25;;
64615;SDS011;51027;42.162;24.754;2023-03-01T09:03:38;11.63;;;3.90;;
64615;SDS011;51027;42.162;24.754;2023-03-01T09:06:04;11.45;;;3.42;;
64615;SDS011;51027;42.162;24.754;2023-03-01T09:08:34;10.40;;;3.05;;
64615;SDS011;51027;42.162;24.754;2023-03-01T09:11:01;8.70;;;3.55;;
64615;SDS011;51027;42.162;24.754;2023-03-01T09:13:30;12.40;;;3.92;;
64615;SDS011;51027;42.162;24.754;2023-03-01T09:16:00;8.68;;;3.40;;
64615;SDS011;51027;42.162;24.754;2023-03-01T09:18:27;6.80;;;2.70;;
64615;SDS011;51027;42.162;24.754;2023-03-01T09:20:53;8.43;;;3.28;;
64615;SDS011;51027;42.162;24.754;2023-03-01T09:23:21;8.88;;;2.80;;
64615;SDS011;51027;42.162;24.754;2023-03-01T09:25:46;6.28;;;2.50;;
64615;SDS011;51027;42.162;24.754;2023-03-01T09:28:12;11.23;;;3.20;;
64615;SDS011;51027;42.162;24.754;2023-03-01T09:30:37;10.25;;;3.58;;
64615;SDS011;51027;42.162;24.754;2023-03-01T09:33:03;13.20;;;4.30;;
64615;SDS011;51027;42.162;24.754;2023-03-01T09:35:28;14.13;;;5.20;;
64615;SDS011;51027;42.162;24.754;2023-03-01T09:37:54;12.95;;;4.40;;
64615;SDS011;51027;42.162;24.754;2023-03-01T09:40:20;12.32;;;4.20;;
64615;SDS011;51027;42.162;24.754;2023-03-01T09:42:52;12.48;;;4.47;;
64615;SDS011;51027;42.162;24.754;2023-03-01T09:45:34;13.35;;;4.70;;
64615;SDS011;51027;42.162;24.754;2023-03-01T09:48:03;14.75;;;5.20;;
64615;SDS011;51027;42.162;24.754;2023-03-01T09:50:35;13.48;;;4.45;;
64615;SDS011;51027;42.162;24.754;2023-03-01T09:53:10;12.90;;;4.88;;
64615;SDS011;51027;42.162;24.754;2023-03-01T09:55:43;13.77;;;4.68;;
64615;SDS011;51027;42.162;24.754;2023-03-01T10:01:49;14.45;;;4.95;;
64615;SDS011;51027;42.162;24.754;2023-03-01T10:09:56;11.82;;;3.38;;
64615;SDS011;51027;42.162;24.754;2023-03-01T10:12:24;16.60;;;6.57;;
64615;SDS011;51027;42.162;24.754;2023-03-01T10:17:41;14.25;;;5.20;;
64615;SDS011;51027;42.162;24.754;2023-03-01T10:20:17;7.28;;;3.08;;
64615;SDS011;51027;42.162;24.754;2023-03-01T10:22:47;12.95;;;5.00;;
64615;SDS011;51027;42.162;24.754;2023-03-01T10:27:52;12.75;;;4.28;;
64615;SDS011;51027;42.162;24.754;2023-03-01T10:30:34;14.20;;;5.07;;
64615;SDS011;51027;42.162;24.754;2023-03-01T10:33:04;10.75;;;2.97;;
64615;SDS011;51027;42.162;24.754;2023-03-01T10:35:48;12.60;;;4.30;;
64615;SDS011;51027;42.162;24.754;2023-03-01T10:38:14;12.55;;;3.80;;
64615;SDS011;51027;42.162;24.754;2023-03-01T10:40:52;13.10;;;3.78;;
64615;SDS011;51027;42.162;24.754;2023-03-01T10:43:21;10.38;;;3.88;;
64615;SDS011;51027;42.162;24.754;2023-03-01T10:45:51;9.43;;;3.55;;
64615;SDS011;51027;42.162;24.754;2023-03-01T10:48:18;9.95;;;3.42;;
64615;SDS011;51027;42.162;24.754;2023-03-01T10:55:58;11.85;;;3.63;;
64615;SDS011;51027;42.162;24.754;2023-03-01T10:58:32;10.55;;;3.58;;
64615;SDS011;51027;42.162;24.754;2023-03-01T11:01:01;11.13;;;3.28;;
64615;SDS011;51027;42.162;24.754;2023-03-01T11:03:38;9.07;;;2.70;;
64615;SDS011;51027;42.162;24.754;2023-03-01T11:08:42;10.05;;;3.58;;
64615;SDS011;51027;42.162;24.754;2023-03-01T11:13:34;10.32;;;3.35;;
64615;SDS011;51027;42.162;24.754;2023-03-01T11:16:05;13.15;;;4.30;;
64615;SDS011;51027;42.162;24.754;2023-03-01T11:18:32;14.07;;;4.10;;
64615;SDS011;51027;42.162;24.754;2023-03-01T11:20:59;14.00;;;4.18;;
64615;SDS011;51027;42.162;24.754;2023-03-01T11:23:27;15.00;;;4.68;;
64615;SDS011;51027;42.162;24.754;2023-03-01T11:25:55;9.73;;;3.85;;
64615;SDS011;51027;42.162;24.754;2023-03-01T11:28:23;10.00;;;2.85;;
64615;SDS011;51027;42.162;24.754;2023-03-01T11:38:45;7.60;;;2.83;;
64615;SDS011;51027;42.162;24.754;2023-03-01T11:41:16;13.13;;;4.53;;
64615;SDS011;51027;42.162;24.754;2023-03-01T11:51:54;15.90;;;4.75;;
64615;SDS011;51027;42.162;24.754;2023-03-01T12:08:06;8.48;;;3.03;;
64615;SDS011;51027;42.162;24.754;2023-03-01T12:10:36;7.88;;;2.50;;
64615;SDS011;51027;42.162;24.754;2023-03-01T12:16:49;8.25;;;3.10;;
64615;SDS011;51027;42.162;24.754;2023-03-01T12:27:10;9.82;;;3.35;;
64615;SDS011;51027;42.162;24.754;2023-03-01T12:35:48;14.55;;;4.00;;
64615;SDS011;51027;42.162;24.754;2023-03-01T12:51:34;11.32;;;4.13;;
64615;SDS011;51027;42.162;24.754;2023-03-01T12:54:21;11.75;;;3.60;;
64615;SDS011;51027;42.162;24.754;2023-03-01T12:56:52;8.52;;;3.58;;
64615;SDS011;51027;42.162;24.754;2023-03-01T12:59:24;10.60;;;3.50;;
64615;SDS011;51027;42.162;24.754;2023-03-01T13:07:29;11.02;;;3.90;;
64615;SDS011;51027;42.162;24.754;2023-03-01T13:17:55;14.65;;;4.65;;
64615;SDS011;51027;42.162;24.754;2023-03-01T13:20:24;11.82;;;4.18;;
64615;SDS011;51027;42.162;24.754;2023-03-01T13:23:01;16.92;;;5.72;;
64615;SDS011;51027;42.162;24.754;2023-03-01T13:25:59;11.77;;;4.20;;
64615;SDS011;51027;42.162;24.754;2023-03-01T13:33:52;11.35;;;3.95;;
64615;SDS011;51027;42.162;24.754;2023-03-01T13:42:27;11.38;;;3.95;;
64615;SDS011;51027;42.162;24.754;2023-03-01T13:49:41;9.77;;;3.55;;
64615;SDS011;51027;42.162;24.754;2023-03-01T13:54:56;11.90;;;4.22;;
64615;SDS011;51027;42.162;24.754;2023-03-01T13:57:24;11.25;;;3.83;;
64615;SDS011;51027;42.162;24.754;2023-03-01T13:59:55;13.68;;;4.00;;
64615;SDS011;51027;42.162;24.754;2023-03-01T14:02:20;8.25;;;2.92;;
64615;SDS011;51027;42.162;24.754;2023-03-01T14:04:55;13.43;;;3.67;;
64615;SDS011;51027;42.162;24.754;2023-03-01T14:07:23;10.02;;;3.70;;
64615;SDS011;51027;42.162;24.754;2023-03-01T14:09:54;12.65;;;4.20;;
64615;SDS011;51027;42.162;24.754;2023-03-01T14:15:16;13.10;;;4.13;;
64615;SDS011;51027;42.162;24.754;2023-03-01T14:20:42;10.63;;;3.75;;
64615;SDS011;51027;42.162;24.754;2023-03-01T14:23:17;11.93;;;3.85;;
64615;SDS011;51027;42.162;24.754;2023-03-01T14:25:46;9.38;;;3.53;;
64615;SDS011;51027;42.162;24.754;2023-03-01T14:28:15;8.68;;;3.00;;
64615;SDS011;51027;42.162;24.754;2023-03-01T14:30:45;10.02;;;3.75;;
64615;SDS011;51027;42.162;24.754;2023-03-01T14:33:22;14.27;;;5.10;;
64615;SDS011;51027;42.162;24.754;2023-03-01T14:41:00;19.67;;;7.78;;
64615;SDS011;51027;42.162;24.754;2023-03-01T14:43:29;18.33;;;6.15;;
64615;SDS011;51027;42.162;24.754;2023-03-01T14:45:56;15.45;;;5.75;;
64615;SDS011;51027;42.162;24.754;2023-03-01T14:48:21;16.63;;;7.15;;
64615;SDS011;51027;42.162;24.754;2023-03-01T14:50:48;15.52;;;6.15;;
64615;SDS011;51027;42.162;24.754;2023-03-01T14:53:25;17.35;;;7.50;;
64615;SDS011;51027;42.162;24.754;2023-03-01T14:55:54;16.85;;;7.72;;
64615;SDS011;51027;42.162;24.754;2023-03-01T14:58:23;21.92;;;9.15;;
64615;SDS011;51027;42.162;24.754;2023-03-01T15:00:53;14.65;;;5.93;;
64615;SDS011;51027;42.162;24.754;2023-03-01T15:03:34;15.07;;;5.45;;
64615;SDS011;51027;42.162;24.754;2023-03-01T15:06:05;14.55;;;4.60;;
64615;SDS011;51027;42.162;24.754;2023-03-01T15:08:32;15.52;;;5.93;;
64615;SDS011;51027;42.162;24.754;2023-03-01T15:11:17;18.45;;;7.10;;
64615;SDS011;51027;42.162;24.754;2023-03-01T15:13:47;13.98;;;4.85;;
64615;SDS011;51027;42.162;24.754;2023-03-01T15:16:14;15.50;;;5.57;;
64615;SDS011;51027;42.162;24.754;2023-03-01T15:18:45;13.93;;;4.53;;
64615;SDS011;51027;42.162;24.754;2023-03-01T15:21:23;16.40;;;6.63;;
64615;SDS011;51027;42.162;24.754;2023-03-01T15:24:05;16.58;;;7.32;;
64615;SDS011;51027;42.162;24.754;2023-03-01T15:26:37;14.27;;;5.13;;
64615;SDS011;51027;42.162;24.754;2023-03-01T15:29:10;16.63;;;5.65;;
64615;SDS011;51027;42.162;24.754;2023-03-01T15:31:52;13.68;;;5.40;;
64615;SDS011;51027;42.162;24.754;2023-03-01T15:34:24;12.80;;;4.47;;
64615;SDS011;51027;42.162;24.754;2023-03-01T15:36:51;12.43;;;4.20;;
64615;SDS011;51027;42.162;24.754;2023-03-01T15:45:07;14.13;;;4.30;;
64615;SDS011;51027;42.162;24.754;2023-03-01T15:47:49;13.27;;;4.35;;
64615;SDS011;51027;42.162;24.754;2023-03-01T15:50:19;17.05;;;6.32;;
64615;SDS011;51027;42.162;24.754;2023-03-01T15:52:51;16.25;;;5.80;;
64615;SDS011;51027;42.162;24.754;2023-03-01T15:55:20;14.73;;;4.45;;
64615;SDS011;51027;42.162;24.754;2023-03-01T15:58:01;12.88;;;4.15;;
64615;SDS011;51027;42.162;24.754;2023-03-01T16:00:32;11.07;;;4.22;;
64615;SDS011;51027;42.162;24.754;2023-03-01T16:02:57;12.15;;;4.70;;
64615;SDS011;51027;42.162;24.754;2023-03-01T16:05:41;15.35;;;4.43;;
64615;SDS011;51027;42.162;24.754;2023-03-01T16:08:06;18.13;;;6.03;;
64615;SDS011;51027;42.162;24.754;2023-03-01T16:10:33;17.38;;;6.90;;
64615;SDS011;51027;42.162;24.754;2023-03-01T16:12:59;18.90;;;6.75;;
64615;SDS011;51027;42.162;24.754;2023-03-01T16:15:28;15.95;;;5.90;;
64615;SDS011;51027;42.162;24.754;2023-03-01T16:17:55;14.05;;;5.30;;
64615;SDS011;51027;42.162;24.754;2023-03-01T16:20:23;14.85;;;5.40;;
64615;SDS011;51027;42.162;24.754;2023-03-01T16:22:49;16.77;;;6.38;;
64615;SDS011;51027;42.162;24.754;2023-03-01T16:25:16;13.90;;;5.88;;
64615;SDS011;51027;42.162;24.754;2023-03-01T16:27:43;19.17;;;8.45;;
64615;SDS011;51027;42.162;24.754;2023-03-01T16:30:10;17.75;;;6.65;;
64615;SDS011;51027;42.162;24.754;2023-03-01T16:32:43;25.70;;;12.20;;
64615;SDS011;51027;42.162;24.754;2023-03-01T16:35:10;26.67;;;10.18;;
64615;SDS011;51027;42.162;24.754;2023-03-01T16:37:37;24.25;;;10.00;;
64615;SDS011;51027;42.162;24.754;2023-03-01T16:40:03;24.17;;;9.05;;
64615;SDS011;51027;42.162;24.754;2023-03-01T16:42:34;22.00;;;8.07;;
64615;SDS011;51027;42.162;24.754;2023-03-01T16:45:00;20.48;;;7.97;;
64615;SDS011;51027;42.162;24.754;2023-03-01T16:47:26;17.02;;;6.22;;
64615;SDS011;51027;42.162;24.754;2023-03-01T16:49:52;16.88;;;7.45;;
64615;SDS011;51027;42.162;24.754;2023-03-01T16:52:18;21.40;;;8.07;;
64615;SDS011;51027;42.162;24.754;2023-03-01T16:54:44;17.45;;;7.30;;
64615;SDS011;51027;42.162;24.754;2023-03-01T16:57:10;23.50;;;8.82;;
64615;SDS011;51027;42.162;24.754;2023-03-01T16:59:35;24.95;;;8.85;;
64615;SDS011;51027;42.162;24.754;2023-03-01T17:02:02;17.15;;;6.50;;
64615;SDS011;51027;42.162;24.754;2023-03-01T17:04:27;19.92;;;9.90;;
64615;SDS011;51027;42.162;24.754;2023-03-01T17:06:53;17.25;;;7.28;;